sensor_id;sensor_type;location;lat;lon;timestamp;P1;durP1;ratioP1;P2;durP2;ratioP2
76610;SDS011;65503;48.534;9.062;2023-04-01T00:01:22;2.20;;;0.93;;
76610;SDS011;65503;48.534;9.062;2023-04-01T00:03:49;4.00;;;0.90;;
76610;SDS011;65503;48.534;9.062;2023-04-01T00:06:17;6.30;;;1.05;;
76610;SDS011;65503;48.534;9.062;2023-04-01T00:08:44;2.78;;;0.77;;
76610;SDS011;65503;48.534;9.062;2023-04-01T00:11:11;4.78;;;1.00;;
76610;SDS011;65503;48.534;9.062;2023-04-01T00:13:38;5.60;;;1.05;;
76610;SDS011;65503;48.534;9.062;2023-04-01T00:16:04;4.22;;;1.10;;
76610;SDS011;65503;48.534;9.062;2023-04-01T00:18:45;4.10;;;0.90;;
76610;SDS011;65503;48.534;9.062;2023-04-01T00:23:39;3.45;;;0.82;;
76610;SDS011;65503;48.534;9.062;2023-04-01T00:26:06;3.35;;;0.90;;
76610;SDS011;65503;48.534;9.062;2023-04-01T00:28:33;2.17;;;0.90;;
76610;SDS011;65503;48.534;9.062;2023-04-01T00:31:04;4.05;;;0.70;;
76610;SDS011;65503;48.534;9.062;2023-04-01T00:33:35;5.70;;;0.90;;
76610;SDS011;65503;48.534;9.062;2023-04-01T00:36:21;1.33;;;0.50;;
76610;SDS011;65503;48.534;9.062;2023-04-01T00:38:48;2.22;;;0.70;;
76610;SDS011;65503;48.534;9.062;2023-04-01T00:41:15;2.85;;;0.70;;
76610;SDS011;65503;48.534;9.062;2023-04-01T00:43:44;1.20;;;0.63;;
76610;SDS011;65503;48.534;9.062;2023-04-01T00:46:12;4.82;;;0.63;;
76610;SDS011;65503;48.534;9.062;2023-04-01T00:48:41;4.75;;;0.85;;
76610;SDS011;65503;48.534;9.062;2023-04-01T00:51:14;3.15;;;0.80;;
76610;SDS011;65503;48.534;9.062;2023-04-01T00:53:47;2.25;;;0.70;;
76610;SDS011;65503;48.534;9.062;2023-04-01T00:56:20;1.85;;;0.82;;
76610;SDS011;65503;48.534;9.062;2023-04-01T00:59:00;1.60;;;0.60;;
76610;SDS011;65503;48.534;9.062;2023-04-01T01:01:30;1.20;;;0.52;;
76610;SDS011;65503;48.534;9.062;2023-04-01T01:03:57;5.22;;;0.52;;
76610;SDS011;65503;48.534;9.062;2023-04-01T01:06:27;2.25;;;0.73;;
76610;SDS011;65503;48.534;9.062;2023-04-01T01:11:43;1.45;;;0.50;;
76610;SDS011;65503;48.534;9.062;2023-04-01T01:14:34;4.25;;;0.88;;
76610;SDS011;65503;48.534;9.062;2023-04-01T01:19:52;0.85;;;0.43;;
76610;SDS011;65503;48.534;9.062;2023-04-01T01:25:56;3.17;;;0.50;;
76610;SDS011;65503;48.534;9.062;2023-04-01T01:28:47;1.85;;;0.38;;
76610;SDS011;65503;48.534;9.062;2023-04-01T01:31:37;1.65;;;0.77;;
76610;SDS011;65503;48.534;9.062;2023-04-01T01:36:53;0.35;;;0.35;;
76610;SDS011;65503;48.534;9.062;2023-04-01T01:39:25;1.20;;;0.50;;
76610;SDS011;65503;48.534;9.062;2023-04-01T01:41:59;1.58;;;0.50;;
76610;SDS011;65503;48.534;9.062;2023-04-01T01:44:30;1.77;;;0.43;;
76610;SDS011;65503;48.534;9.062;2023-04-01T01:46:58;1.52;;;0.50;;
76610;SDS011;65503;48.534;9.062;2023-04-01T01:49:26;2.10;;;0.38;;
76610;SDS011;65503;48.534;9.062;2023-04-01T01:51:56;0.60;;;0.22;;
76610;SDS011;65503;48.534;9.062;2023-04-01T01:54:23;0.80;;;0.40;;
76610;SDS011;65503;48.534;9.062;2023-04-01T01:56:51;1.95;;;0.38;;
76610;SDS011;65503;48.534;9.062;2023-04-01T01:59:22;2.67;;;0.60;;
76610;SDS011;65503;48.534;9.062;2023-04-01T02:01:51;1.08;;;0.30;;
76610;SDS011;65503;48.534;9.062;2023-04-01T02:04:20;1.85;;;0.50;;
76610;SDS011;65503;48.534;9.062;2023-04-01T02:07:23;0.90;;;0.38;;
76610;SDS011;65503;48.534;9.062;2023-04-01T02:09:49;0.20;;;0.20;;
76610;SDS011;65503;48.534;9.062;2023-04-01T02:12:16;1.17;;;0.60;;
76610;SDS011;65503;48.534;9.062;2023-04-01T02:14:47;2.05;;;0.50;;
76610;SDS011;65503;48.534;9.062;2023-04-01T02:17:20;0.38;;;0.17;;
76610;SDS011;65503;48.534;9.062;2023-04-01T02:19:50;3.03;;;0.50;;
76610;SDS011;65503;48.534;9.062;2023-04-01T02:22:20;0.68;;;0.45;;
76610;SDS011;65503;48.534;9.062;2023-04-01T02:24:50;0.68;;;0.28;;
76610;SDS011;65503;48.534;9.062;2023-04-01T02:27:20;0.40;;;0.40;;
76610;SDS011;65503;48.534;9.062;2023-04-01T02:29:47;0.40;;;0.40;;
76610;SDS011;65503;48.534;9.062;2023-04-01T02:32:14;0.88;;;0.20;;
76610;SDS011;65503;48.534;9.062;2023-04-01T02:34:41;2.83;;;0.60;;
76610;SDS011;65503;48.534;9.062;2023-04-01T02:37:08;0.85;;;0.30;;
76610;SDS011;65503;48.534;9.062;2023-04-01T02:39:36;3.08;;;0.50;;
76610;SDS011;65503;48.534;9.062;2023-04-01T02:42:03;0.40;;;0.32;;
76610;SDS011;65503;48.534;9.062;2023-04-01T02:44:29;0.30;;;0.30;;
76610;SDS011;65503;48.534;9.062;2023-04-01T02:46:56;2.08;;;0.52;;
76610;SDS011;65503;48.534;9.062;2023-04-01T02:49:22;0.50;;;0.50;;
76610;SDS011;65503;48.534;9.062;2023-04-01T02:51:49;0.60;;;0.47;;
76610;SDS011;65503;48.534;9.062;2023-04-01T02:54:15;2.80;;;0.40;;
76610;SDS011;65503;48.534;9.062;2023-04-01T02:56:42;1.92;;;0.32;;
76610;SDS011;65503;48.534;9.062;2023-04-01T02:59:09;0.60;;;0.30;;
76610;SDS011;65503;48.534;9.062;2023-04-01T03:01:35;0.13;;;0.13;;
76610;SDS011;65503;48.534;9.062;2023-04-01T03:04:02;1.30;;;0.32;;
76610;SDS011;65503;48.534;9.062;2023-04-01T03:06:29;1.10;;;0.45;;
76610;SDS011;65503;48.534;9.062;2023-04-01T03:08:55;2.35;;;0.50;;
76610;SDS011;65503;48.534;9.062;2023-04-01T03:11:22;0.30;;;0.30;;
76610;SDS011;65503;48.534;9.062;2023-04-01T03:13:49;0.55;;;0.30;;
76610;SDS011;65503;48.534;9.062;2023-04-01T03:16:15;0.52;;;0.20;;
76610;SDS011;65503;48.534;9.062;2023-04-01T03:18:42;3.20;;;0.50;;
76610;SDS011;65503;48.534;9.062;2023-04-01T03:21:16;0.90;;;0.38;;
76610;SDS011;65503;48.534;9.062;2023-04-01T03:23:45;0.25;;;0.25;;
76610;SDS011;65503;48.534;9.062;2023-04-01T03:26:11;0.20;;;0.20;;
76610;SDS011;65503;48.534;9.062;2023-04-01T03:28:38;0.20;;;0.20;;
76610;SDS011;65503;48.534;9.062;2023-04-01T03:31:05;1.88;;;0.43;;
76610;SDS011;65503;48.534;9.062;2023-04-01T03:33:32;0.20;;;0.20;;
76610;SDS011;65503;48.534;9.062;2023-04-01T03:35:59;0.30;;;0.30;;
76610;SDS011;65503;48.534;9.062;2023-04-01T03:38:26;0.22;;;0.20;;
76610;SDS011;65503;48.534;9.062;2023-04-01T03:40:52;0.55;;;0.30;;
76610;SDS011;65503;48.534;9.062;2023-04-01T03:43:19;0.38;;;0.30;;
76610;SDS011;65503;48.534;9.062;2023-04-01T03:45:49;0.95;;;0.40;;
76610;SDS011;65503;48.534;9.062;2023-04-01T03:48:17;0.60;;;0.30;;
76610;SDS011;65503;48.534;9.062;2023-04-01T03:50:44;0.65;;;0.32;;
76610;SDS011;65503;48.534;9.062;2023-04-01T03:53:11;0.32;;;0.32;;
76610;SDS011;65503;48.534;9.062;2023-04-01T03:55:38;1.98;;;0.68;;
76610;SDS011;65503;48.534;9.062;2023-04-01T03:58:06;0.22;;;0.20;;
76610;SDS011;65503;48.534;9.062;2023-04-01T04:00:33;1.60;;;0.40;;
76610;SDS011;65503;48.534;9.062;2023-04-01T04:03:00;2.10;;;0.40;;
76610;SDS011;65503;48.534;9.062;2023-04-01T04:05:27;1.25;;;0.28;;
76610;SDS011;65503;48.534;9.062;2023-04-01T04:07:54;0.45;;;0.30;;
76610;SDS011;65503;48.534;9.062;2023-04-01T04:10:21;1.23;;;0.35;;
76610;SDS011;65503;48.534;9.062;2023-04-01T04:12:49;1.30;;;0.40;;
76610;SDS011;65503;48.534;9.062;2023-04-01T04:15:16;0.45;;;0.30;;
76610;SDS011;65503;48.534;9.062;2023-04-01T04:17:43;0.88;;;0.38;;
76610;SDS011;65503;48.534;9.062;2023-04-01T04:20:10;1.55;;;0.60;;
76610;SDS011;65503;48.534;9.062;2023-04-01T04:22:37;0.88;;;0.45;;
76610;SDS011;65503;48.534;9.062;2023-04-01T04:25:04;0.75;;;0.40;;
76610;SDS011;65503;48.534;9.062;2023-04-01T04:27:30;1.02;;;0.22;;
76610;SDS011;65503;48.534;9.062;2023-04-01T04:29:57;0.40;;;0.40;;
76610;SDS011;65503;48.534;9.062;2023-04-01T04:32:23;1.42;;;0.60;;
76610;SDS011;65503;48.534;9.062;2023-04-01T04:34:50;1.02;;;0.60;;
76610;SDS011;65503;48.534;9.062;2023-04-01T04:37:16;1.17;;;0.52;;
76610;SDS011;65503;48.534;9.062;2023-04-01T04:39:43;0.90;;;0.38;;
76610;SDS011;65503;48.534;9.062;2023-04-01T04:42:09;0.88;;;0.35;;
76610;SDS011;65503;48.534;9.062;2023-04-01T04:44:36;1.23;;;0.50;;
76610;SDS011;65503;48.534;9.062;2023-04-01T04:47:02;1.77;;;0.52;;
76610;SDS011;65503;48.534;9.062;2023-04-01T04:49:29;3.28;;;0.93;;
76610;SDS011;65503;48.534;9.062;2023-04-01T04:51:56;2.15;;;0.50;;
76610;SDS011;65503;48.534;9.062;2023-04-01T04:54:22;3.45;;;0.95;;
76610;SDS011;65503;48.534;9.062;2023-04-01T04:56:50;3.03;;;0.85;;
76610;SDS011;65503;48.534;9.062;2023-04-01T04:59:18;2.35;;;0.68;;
76610;SDS011;65503;48.534;9.062;2023-04-01T05:01:44;3.03;;;0.65;;
76610;SDS011;65503;48.534;9.062;2023-04-01T05:04:11;1.77;;;0.65;;
76610;SDS011;65503;48.534;9.062;2023-04-01T05:06:38;1.73;;;0.50;;
76610;SDS011;65503;48.534;9.062;2023-04-01T05:09:04;3.22;;;0.60;;
76610;SDS011;65503;48.534;9.062;2023-04-01T05:11:31;3.05;;;0.70;;
76610;SDS011;65503;48.534;9.062;2023-04-01T05:13:57;2.55;;;0.95;;
76610;SDS011;65503;48.534;9.062;2023-04-01T05:16:24;2.92;;;0.60;;
76610;SDS011;65503;48.534;9.062;2023-04-01T05:18:50;1.35;;;0.45;;
76610;SDS011;65503;48.534;9.062;2023-04-01T05:21:17;4.30;;;0.70;;
76610;SDS011;65503;48.534;9.062;2023-04-01T05:23:43;2.22;;;0.77;;
76610;SDS011;65503;48.534;9.062;2023-04-01T05:26:11;2.80;;;0.52;;
76610;SDS011;65503;48.534;9.062;2023-04-01T05:28:40;1.58;;;0.93;;
76610;SDS011;65503;48.534;9.062;2023-04-01T05:31:07;5.57;;;0.60;;
76610;SDS011;65503;48.534;9.062;2023-04-01T05:33:33;2.40;;;0.55;;
76610;SDS011;65503;48.534;9.062;2023-04-01T05:36:22;3.38;;;0.70;;
76610;SDS011;65503;48.534;9.062;2023-04-01T05:38:47;2.28;;;0.60;;
76610;SDS011;65503;48.534;9.062;2023-04-01T05:41:13;1.75;;;0.95;;
76610;SDS011;65503;48.534;9.062;2023-04-01T05:43:42;1.45;;;0.32;;
76610;SDS011;65503;48.534;9.062;2023-04-01T05:46:08;2.38;;;0.55;;
76610;SDS011;65503;48.534;9.062;2023-04-01T05:48:35;1.08;;;0.50;;
76610;SDS011;65503;48.534;9.062;2023-04-01T05:51:02;1.70;;;0.60;;
76610;SDS011;65503;48.534;9.062;2023-04-01T05:53:29;0.80;;;0.40;;
76610;SDS011;65503;48.534;9.062;2023-04-01T05:55:56;0.95;;;0.35;;
76610;SDS011;65503;48.534;9.062;2023-04-01T05:58:22;0.95;;;0.40;;
76610;SDS011;65503;48.534;9.062;2023-04-01T06:00:48;2.28;;;0.43;;
76610;SDS011;65503;48.534;9.062;2023-04-01T06:03:34;0.55;;;0.25;;
76610;SDS011;65503;48.534;9.062;2023-04-01T06:06:02;0.32;;;0.28;;
76610;SDS011;65503;48.534;9.062;2023-04-01T06:08:29;3.42;;;0.50;;
76610;SDS011;65503;48.534;9.062;2023-04-01T06:11:00;0.50;;;0.43;;
76610;SDS011;65503;48.534;9.062;2023-04-01T06:30:03;1.52;;;0.57;;
76610;SDS011;65503;48.534;9.062;2023-04-01T06:32:46;1.83;;;0.70;;
76610;SDS011;65503;48.534;9.062;2023-04-01T06:35:19;2.92;;;0.52;;
76610;SDS011;65503;48.534;9.062;2023-04-01T06:38:59;1.58;;;0.60;;
76610;SDS011;65503;48.534;9.062;2023-04-01T06:46:51;3.70;;;0.70;;
76610;SDS011;65503;48.534;9.062;2023-04-01T06:49:41;1.10;;;0.57;;
76610;SDS011;65503;48.534;9.062;2023-04-01T06:52:37;0.40;;;0.40;;
76610;SDS011;65503;48.534;9.062;2023-04-01T06:55:26;0.88;;;0.43;;
76610;SDS011;65503;48.534;9.062;2023-04-01T06:57:59;1.08;;;0.40;;
76610;SDS011;65503;48.534;9.062;2023-04-01T07:03:16;1.27;;;0.75;;
76610;SDS011;65503;48.534;9.062;2023-04-01T07:06:03;3.38;;;0.68;;
76610;SDS011;65503;48.534;9.062;2023-04-01T07:08:34;1.08;;;0.70;;
76610;SDS011;65503;48.534;9.062;2023-04-01T07:11:09;1.65;;;0.38;;
76610;SDS011;65503;48.534;9.062;2023-04-01T07:16:34;2.03;;;0.50;;
76610;SDS011;65503;48.534;9.062;2023-04-01T07:19:08;2.15;;;0.40;;
76610;SDS011;65503;48.534;9.062;2023-04-01T07:21:48;2.72;;;0.68;;
76610;SDS011;65503;48.534;9.062;2023-04-01T07:24:23;0.90;;;0.52;;
76610;SDS011;65503;48.534;9.062;2023-04-01T07:26:58;1.55;;;0.70;;
76610;SDS011;65503;48.534;9.062;2023-04-01T07:29:25;1.63;;;0.60;;
76610;SDS011;65503;48.534;9.062;2023-04-01T07:40:27;1.42;;;0.65;;
76610;SDS011;65503;48.534;9.062;2023-04-01T07:43:19;2.60;;;0.50;;
76610;SDS011;65503;48.534;9.062;2023-04-01T07:54:36;2.33;;;0.60;;
76610;SDS011;65503;48.534;9.062;2023-04-01T07:57:21;3.17;;;0.70;;
76610;SDS011;65503;48.534;9.062;2023-04-01T08:10:46;1.50;;;0.57;;
76610;SDS011;65503;48.534;9.062;2023-04-01T08:13:21;1.75;;;0.55;;
76610;SDS011;65503;48.534;9.062;2023-04-01T08:15:57;2.30;;;0.73;;
76610;SDS011;65503;48.534;9.062;2023-04-01T08:21:48;3.17;;;0.60;;
76610;SDS011;65503;48.534;9.062;2023-04-01T08:24:29;1.60;;;0.50;;
76610;SDS011;65503;48.534;9.062;2023-04-01T08:27:15;1.40;;;0.50;;
76610;SDS011;65503;48.534;9.062;2023-04-01T08:30:35;3.00;;;0.80;;
76610;SDS011;65503;48.534;9.062;2023-04-01T08:32:58;1.10;;;0.65;;
76610;SDS011;65503;48.534;9.062;2023-04-01T08:35:34;0.93;;;0.50;;
76610;SDS011;65503;48.534;9.062;2023-04-01T08:40:56;2.80;;;0.60;;
76610;SDS011;65503;48.534;9.062;2023-04-01T08:54:29;1.30;;;0.70;;
76610;SDS011;65503;48.534;9.062;2023-04-01T08:57:09;1.92;;;0.60;;
76610;SDS011;65503;48.534;9.062;2023-04-01T09:02:58;2.88;;;0.68;;
76610;SDS011;65503;48.534;9.062;2023-04-01T09:14:24;6.18;;;1.25;;
76610;SDS011;65503;48.534;9.062;2023-04-01T09:23:08;3.03;;;0.70;;
76610;SDS011;65503;48.534;9.062;2023-04-01T09:31:12;1.05;;;0.60;;
76610;SDS011;65503;48.534;9.062;2023-04-01T09:39:35;2.20;;;0.90;;
76610;SDS011;65503;48.534;9.062;2023-04-01T09:44:55;1.35;;;0.60;;
76610;SDS011;65503;48.534;9.062;2023-04-01T10:02:17;1.17;;;0.70;;
76610;SDS011;65503;48.534;9.062;2023-04-01T10:13:26;0.75;;;0.60;;
76610;SDS011;65503;48.534;9.062;2023-04-01T10:24:22;2.95;;;1.00;;
76610;SDS011;65503;48.534;9.062;2023-04-01T10:27:21;1.88;;;0.82;;
76610;SDS011;65503;48.534;9.062;2023-04-01T10:44:09;1.02;;;0.55;;
76610;SDS011;65503;48.534;9.062;2023-04-01T10:50:04;0.60;;;0.60;;
76610;SDS011;65503;48.534;9.062;2023-04-01T10:52:45;1.60;;;0.75;;
76610;SDS011;65503;48.534;9.062;2023-04-01T10:55:36;0.73;;;0.63;;
76610;SDS011;65503;48.534;9.062;2023-04-01T11:12:55;2.25;;;0.65;;
76610;SDS011;65503;48.534;9.062;2023-04-01T11:18:11;1.13;;;0.57;;
76610;SDS011;65503;48.534;9.062;2023-04-01T11:21:08;3.45;;;0.80;;
76610;SDS011;65503;48.534;9.062;2023-04-01T11:24:02;2.45;;;0.68;;
76610;SDS011;65503;48.534;9.062;2023-04-01T11:26:41;4.13;;;1.02;;
76610;SDS011;65503;48.534;9.062;2023-04-01T11:29:23;4.30;;;0.90;;
76610;SDS011;65503;48.534;9.062;2023-04-01T11:37:36;1.85;;;0.40;;
76610;SDS011;65503;48.534;9.062;2023-04-01T11:44:03;1.45;;;0.65;;
76610;SDS011;65503;48.534;9.062;2023-04-01T11:49:00;1.13;;;0.80;;
76610;SDS011;65503;48.534;9.062;2023-04-01T11:51:59;1.65;;;0.70;;
76610;SDS011;65503;48.534;9.062;2023-04-01T12:00:28;1.65;;;0.65;;
76610;SDS011;65503;48.534;9.062;2023-04-01T12:03:18;1.15;;;0.60;;
76610;SDS011;65503;48.534;9.062;2023-04-01T12:11:39;0.70;;;0.43;;
76610;SDS011;65503;48.534;9.062;2023-04-01T12:14:16;1.35;;;0.55;;
76610;SDS011;65503;48.534;9.062;2023-04-01T12:22:45;0.65;;;0.43;;
76610;SDS011;65503;48.534;9.062;2023-04-01T12:34:09;3.08;;;0.55;;
76610;SDS011;65503;48.534;9.062;2023-04-01T12:47:37;0.43;;;0.28;;
76610;SDS011;65503;48.534;9.062;2023-04-01T12:56:04;0.38;;;0.20;;
76610;SDS011;65503;48.534;9.062;2023-04-01T13:02:03;0.88;;;0.40;;
76610;SDS011;65503;48.534;9.062;2023-04-01T13:04:48;0.25;;;0.25;;
76610;SDS011;65503;48.534;9.062;2023-04-01T13:09:55;3.45;;;0.50;;
76610;SDS011;65503;48.534;9.062;2023-04-01T13:15:10;0.40;;;0.40;;
76610;SDS011;65503;48.534;9.062;2023-04-01T13:28:47;0.70;;;0.40;;
76610;SDS011;65503;48.534;9.062;2023-04-01T13:31:29;0.82;;;0.38;;
76610;SDS011;65503;48.534;9.062;2023-04-01T13:34:09;0.75;;;0.45;;
76610;SDS011;65503;48.534;9.062;2023-04-01T13:39:31;0.38;;;0.38;;
76610;SDS011;65503;48.534;9.062;2023-04-01T13:42:24;0.38;;;0.32;;
76610;SDS011;65503;48.534;9.062;2023-04-01T13:48:01;0.45;;;0.45;;
76610;SDS011;65503;48.534;9.062;2023-04-01T13:56:20;3.90;;;0.55;;
76610;SDS011;65503;48.534;9.062;2023-04-01T14:02:05;0.40;;;0.40;;
76610;SDS011;65503;48.534;9.062;2023-04-01T14:07:18;0.60;;;0.40;;
76610;SDS011;65503;48.534;9.062;2023-04-01T14:10:04;1.35;;;0.50;;
76610;SDS011;65503;48.534;9.062;2023-04-01T14:12:43;0.85;;;0.43;;
76610;SDS011;65503;48.534;9.062;2023-04-01T14:21:17;2.97;;;0.80;;
76610;SDS011;65503;48.534;9.062;2023-04-01T14:30:05;0.60;;;0.45;;
76610;SDS011;65503;48.534;9.062;2023-04-01T14:33:01;1.58;;;0.43;;
76610;SDS011;65503;48.534;9.062;2023-04-01T14:35:46;1.10;;;0.45;;
76610;SDS011;65503;48.534;9.062;2023-04-01T14:38:35;0.70;;;0.70;;
76610;SDS011;65503;48.534;9.062;2023-04-01T14:41:17;1.48;;;0.50;;
76610;SDS011;65503;48.534;9.062;2023-04-01T14:46:43;0.73;;;0.40;;
76610;SDS011;65503;48.534;9.062;2023-04-01T14:49:17;0.57;;;0.30;;
76610;SDS011;65503;48.534;9.062;2023-04-01T14:51:50;0.88;;;0.50;;
76610;SDS011;65503;48.534;9.062;2023-04-01T14:54:19;0.25;;;0.25;;
76610;SDS011;65503;48.534;9.062;2023-04-01T14:57:13;1.83;;;0.50;;
76610;SDS011;65503;48.534;9.062;2023-04-01T14:59:47;1.63;;;0.60;;
76610;SDS011;65503;48.534;9.062;2023-04-01T15:13:30;0.75;;;0.55;;
76610;SDS011;65503;48.534;9.062;2023-04-01T15:25:00;4.20;;;0.85;;
76610;SDS011;65503;48.534;9.062;2023-04-01T15:36:24;1.95;;;0.80;;
76610;SDS011;65503;48.534;9.062;2023-04-01T15:49:57;2.35;;;0.73;;
76610;SDS011;65503;48.534;9.062;2023-04-01T15:52:37;2.90;;;1.05;;
76610;SDS011;65503;48.534;9.062;2023-04-01T15:58:18;5.35;;;0.93;;
76610;SDS011;65503;48.534;9.062;2023-04-01T16:00:56;2.40;;;1.17;;
76610;SDS011;65503;48.534;9.062;2023-04-01T16:03:39;2.88;;;0.80;;
76610;SDS011;65503;48.534;9.062;2023-04-01T16:15:18;1.10;;;0.57;;
76610;SDS011;65503;48.534;9.062;2023-04-01T16:20:52;0.95;;;0.70;;
76610;SDS011;65503;48.534;9.062;2023-04-01T16:23:35;1.40;;;0.65;;
76610;SDS011;65503;48.534;9.062;2023-04-01T16:29:12;0.68;;;0.47;;
76610;SDS011;65503;48.534;9.062;2023-04-01T16:31:47;0.50;;;0.50;;
76610;SDS011;65503;48.534;9.062;2023-04-01T16:34:19;2.42;;;0.90;;
76610;SDS011;65503;48.534;9.062;2023-04-01T16:39:22;2.45;;;0.70;;
76610;SDS011;65503;48.534;9.062;2023-04-01T16:42:17;2.45;;;0.60;;
76610;SDS011;65503;48.534;9.062;2023-04-01T16:47:35;3.00;;;0.80;;
76610;SDS011;65503;48.534;9.062;2023-04-01T16:55:43;1.13;;;0.70;;
76610;SDS011;65503;48.534;9.062;2023-04-01T16:58:24;2.55;;;1.45;;
76610;SDS011;65503;48.534;9.062;2023-04-01T17:00:55;2.58;;;1.17;;
76610;SDS011;65503;48.534;9.062;2023-04-01T17:03:32;3.35;;;1.10;;
76610;SDS011;65503;48.534;9.062;2023-04-01T17:06:17;2.53;;;1.00;;
76610;SDS011;65503;48.534;9.062;2023-04-01T17:11:56;2.53;;;1.00;;
76610;SDS011;65503;48.534;9.062;2023-04-01T17:14:32;2.72;;;1.00;;
76610;SDS011;65503;48.534;9.062;2023-04-01T17:17:28;3.08;;;1.00;;
76610;SDS011;65503;48.534;9.062;2023-04-01T17:28:53;3.50;;;1.05;;
76610;SDS011;65503;48.534;9.062;2023-04-01T17:31:42;4.80;;;1.80;;
76610;SDS011;65503;48.534;9.062;2023-04-01T17:39:51;3.28;;;1.15;;
76610;SDS011;65503;48.534;9.062;2023-04-01T17:42:57;2.30;;;0.93;;
76610;SDS011;65503;48.534;9.062;2023-04-01T17:45:43;4.57;;;1.20;;
76610;SDS011;65503;48.534;9.062;2023-04-01T17:54:01;2.47;;;1.13;;
76610;SDS011;65503;48.534;9.062;2023-04-01T17:57:08;2.88;;;1.10;;
76610;SDS011;65503;48.534;9.062;2023-04-01T18:00:02;2.80;;;0.73;;
76610;SDS011;65503;48.534;9.062;2023-04-01T18:11:21;4.43;;;1.20;;
76610;SDS011;65503;48.534;9.062;2023-04-01T18:16:53;2.88;;;1.00;;
76610;SDS011;65503;48.534;9.062;2023-04-01T18:19:35;2.42;;;1.20;;
76610;SDS011;65503;48.534;9.062;2023-04-01T18:25:17;3.60;;;1.10;;
76610;SDS011;65503;48.534;9.062;2023-04-01T18:27:52;1.30;;;1.10;;
76610;SDS011;65503;48.534;9.062;2023-04-01T18:30:30;1.38;;;0.80;;
76610;SDS011;65503;48.534;9.062;2023-04-01T18:33:01;1.65;;;0.73;;
76610;SDS011;65503;48.534;9.062;2023-04-01T18:41:30;1.15;;;0.80;;
76610;SDS011;65503;48.534;9.062;2023-04-01T18:43:56;1.00;;;0.70;;
76610;SDS011;65503;48.534;9.062;2023-04-01T18:49:29;2.00;;;0.95;;
76610;SDS011;65503;48.534;9.062;2023-04-01T18:57:46;1.10;;;0.80;;
76610;SDS011;65503;48.534;9.062;2023-04-01T19:00:21;1.60;;;0.68;;
76610;SDS011;65503;48.534;9.062;2023-04-01T19:03:02;1.65;;;0.70;;
76610;SDS011;65503;48.534;9.062;2023-04-01T19:05:41;0.80;;;0.63;;
76610;SDS011;65503;48.534;9.062;2023-04-01T19:08:14;1.40;;;0.73;;
76610;SDS011;65503;48.534;9.062;2023-04-01T19:10:58;1.70;;;0.73;;
76610;SDS011;65503;48.534;9.062;2023-04-01T19:18:49;2.97;;;0.82;;
76610;SDS011;65503;48.534;9.062;2023-04-01T19:21:38;1.00;;;0.80;;
76610;SDS011;65503;48.534;9.062;2023-04-01T19:24:16;1.23;;;0.60;;
76610;SDS011;65503;48.534;9.062;2023-04-01T19:29:46;1.52;;;0.80;;
76610;SDS011;65503;48.534;9.062;2023-04-01T19:32:29;5.05;;;1.70;;
76610;SDS011;65503;48.534;9.062;2023-04-01T19:35:13;4.03;;;1.50;;
76610;SDS011;65503;48.534;9.062;2023-04-01T19:40:43;3.83;;;1.67;;
76610;SDS011;65503;48.534;9.062;2023-04-01T19:51:23;5.25;;;1.80;;
76610;SDS011;65503;48.534;9.062;2023-04-01T19:56:53;3.25;;;1.50;;
76610;SDS011;65503;48.534;9.062;2023-04-01T19:59:34;4.70;;;1.67;;
76610;SDS011;65503;48.534;9.062;2023-04-01T20:04:39;3.78;;;1.80;;
76610;SDS011;65503;48.534;9.062;2023-04-01T20:12:47;3.42;;;1.40;;
76610;SDS011;65503;48.534;9.062;2023-04-01T20:18:01;4.43;;;1.50;;
76610;SDS011;65503;48.534;9.062;2023-04-01T20:20:31;2.60;;;1.30;;
76610;SDS011;65503;48.534;9.062;2023-04-01T20:25:55;1.63;;;1.15;;
76610;SDS011;65503;48.534;9.062;2023-04-01T20:28:32;5.45;;;1.13;;
76610;SDS011;65503;48.534;9.062;2023-04-01T20:31:12;5.57;;;1.40;;
76610;SDS011;65503;48.534;9.062;2023-04-01T20:37:00;5.57;;;2.05;;
76610;SDS011;65503;48.534;9.062;2023-04-01T20:50:58;3.40;;;1.65;;
76610;SDS011;65503;48.534;9.062;2023-04-01T20:56:30;4.10;;;2.10;;
76610;SDS011;65503;48.534;9.062;2023-04-01T20:59:10;5.68;;;2.00;;
76610;SDS011;65503;48.534;9.062;2023-04-01T21:01:43;4.53;;;2.25;;
76610;SDS011;65503;48.534;9.062;2023-04-01T21:04:27;5.15;;;2.22;;
76610;SDS011;65503;48.534;9.062;2023-04-01T21:12:48;3.35;;;1.60;;
76610;SDS011;65503;48.534;9.062;2023-04-01T21:15:30;3.75;;;1.75;;
76610;SDS011;65503;48.534;9.062;2023-04-01T21:18:12;5.10;;;2.03;;
76610;SDS011;65503;48.534;9.062;2023-04-01T21:21:02;3.80;;;1.20;;
76610;SDS011;65503;48.534;9.062;2023-04-01T21:43:25;4.13;;;1.42;;
76610;SDS011;65503;48.534;9.062;2023-04-01T21:52:24;1.77;;;1.10;;
76610;SDS011;65503;48.534;9.062;2023-04-01T22:03:18;2.33;;;1.05;;
76610;SDS011;65503;48.534;9.062;2023-04-01T22:14:18;2.22;;;0.95;;
76610;SDS011;65503;48.534;9.062;2023-04-01T22:16:59;1.25;;;0.80;;
76610;SDS011;65503;48.534;9.062;2023-04-01T22:25:43;1.42;;;0.98;;
76610;SDS011;65503;48.534;9.062;2023-04-01T22:28:24;1.45;;;0.80;;
76610;SDS011;65503;48.534;9.062;2023-04-01T22:30:59;2.63;;;0.90;;
76610;SDS011;65503;48.534;9.062;2023-04-01T22:33:48;2.15;;;0.90;;
76610;SDS011;65503;48.534;9.062;2023-04-01T22:50:59;1.52;;;0.75;;
76610;SDS011;65503;48.534;9.062;2023-04-01T22:56:34;1.48;;;0.75;;
76610;SDS011;65503;48.534;9.062;2023-04-01T22:59:11;1.52;;;0.88;;
76610;SDS011;65503;48.534;9.062;2023-04-01T23:01:44;0.80;;;0.68;;
76610;SDS011;65503;48.534;9.062;2023-04-01T23:04:21;1.02;;;0.60;;
76610;SDS011;65503;48.534;9.062;2023-04-01T23:06:52;0.52;;;0.52;;
76610;SDS011;65503;48.534;9.062;2023-04-01T23:09:25;0.55;;;0.52;;
76610;SDS011;65503;48.534;9.062;2023-04-01T23:11:55;1.75;;;0.73;;
76610;SDS011;65503;48.534;9.062;2023-04-01T23:14:37;1.20;;;0.60;;
76610;SDS011;65503;48.534;9.062;2023-04-01T23:17:18;0.85;;;0.60;;
76610;SDS011;65503;48.534;9.062;2023-04-01T23:35:47;1.15;;;0.77;;
76610;SDS011;65503;48.534;9.062;2023-04-01T23:38:17;1.90;;;0.77;;
76610;SDS011;65503;48.534;9.062;2023-04-01T23:40:47;2.13;;;0.77;;
76610;SDS011;65503;48.534;9.062;2023-04-01T23:43:30;1.00;;;0.60;;
76610;SDS011;65503;48.534;9.062;2023-04-01T23:46:00;1.35;;;0.75;;
76610;SDS011;65503;48.534;9.062;2023-04-01T23:48:33;0.55;;;0.55;;
76610;SDS011;65503;48.534;9.062;2023-04-01T23:51:03;0.60;;;0.60;;
76610;SDS011;65503;48.534;9.062;2023-04-01T23:53:38;0.88;;;0.70;;
76610;SDS011;65503;48.534;9.062;2023-04-01T23:56:10;1.92;;;0.88;;
76610;SDS011;65503;48.534;9.062;2023-04-01T23:58:38;0.50;;;0.50;;
